Time;durP1;ratioP1;P1;durP2;ratioP2;P2;SDS_P1;SDS_P2;PMS_P1;PMS_P2;Temp;Humidity;BMP_temperature;BMP_pressure;BME280_temperature;BME280_humidity;BME280_pressure;Samples;Min_cycle;Max_cycle;Signal;HPM_P1;HPM_P2
2023/03/20 00:01:20;;;;;;;12.27;6.20;;;7.20;99.90;;;;;;5095780;28;20111;-48
2023/03/20 00:03:46;;;;;;;14.73;5.88;;;7.50;99.90;;;;;;5095669;28;20044;-49
2023/03/20 00:06:18;;;;;;;12.50;5.93;;;7.40;99.90;;;;;;5095848;28;20032;-49
2023/03/20 00:08:46;;;;;;;13.05;6.32;;;7.00;99.90;;;;;;5095707;28;20071;-48
2023/03/20 00:11:27;;;;;;;14.75;6.15;;;7.50;99.90;;;;;;5095533;28;20044;-49
2023/03/20 00:14:05;;;;;;;12.60;5.60;;;7.40;99.90;;;;;;5095689;28;20051;-49
2023/03/20 00:16:36;;;;;;;11.82;5.65;;;7.00;99.90;;;;;;5095616;28;20667;-48
2023/03/20 00:19:02;;;;;;;12.93;5.40;;;7.40;99.90;;;;;;5094884;28;20091;-49
2023/03/20 00:21:29;;;;;;;12.05;5.40;;;7.20;99.90;;;;;;5095409;28;20096;-50
2023/03/20 00:23:55;;;;;;;11.63;4.85;;;6.80;99.90;;;;;;5093847;28;20044;-48
2023/03/20 00:26:25;;;;;;;11.38;5.05;;;7.30;99.90;;;;;;5095237;28;20055;-48
2023/03/20 00:28:51;;;;;;;12.85;4.72;;;6.90;99.90;;;;;;5095265;28;20093;-49
2023/03/20 00:31:27;;;;;;;13.45;5.35;;;7.20;99.90;;;;;;5095501;28;20085;-48
2023/03/20 00:33:56;;;;;;;10.80;5.18;;;6.90;99.90;;;;;;5095208;28;20105;-47
2023/03/20 00:36:22;;;;;;;11.27;5.15;;;7.30;99.90;;;;;;5095083;28;20066;-49
2023/03/20 00:38:47;;;;;;;11.38;5.20;;;7.10;99.90;;;;;;5094983;28;20044;-48
2023/03/20 00:41:50;;;;;;;13.77;5.45;;;7.10;99.90;;;;;;5094951;28;20055;-50
2023/03/20 00:44:26;;;;;;;9.27;4.38;;;7.00;99.90;;;;;;5078086;28;20500;-49
2023/03/20 00:46:58;;;;;;;11.57;5.20;;;7.10;99.90;;;;;;5094727;28;20032;-48
2023/03/20 00:49:31;;;;;;;11.50;4.80;;;6.80;99.90;;;;;;5094522;28;20047;-48
2023/03/20 00:51:57;;;;;;;10.25;4.97;;;6.80;99.90;;;;;;5094954;28;20067;-49
2023/03/20 00:54:23;;;;;;;10.75;5.20;;;6.90;99.90;;;;;;5094936;28;20505;-49
2023/03/20 00:57:14;;;;;;;12.68;4.75;;;7.10;99.90;;;;;;5094748;28;20036;-48
2023/03/20 00:59:57;;;;;;;9.38;4.25;;;7.10;99.90;;;;;;5088720;28;20051;-49
2023/03/20 01:02:27;;;;;;;9.85;4.80;;;6.90;99.90;;;;;;5094702;28;20078;-49
2023/03/20 01:04:53;;;;;;;11.80;5.25;;;7.30;99.90;;;;;;5094290;28;20055;-48
2023/03/20 01:07:21;;;;;;;10.10;4.88;;;7.10;99.90;;;;;;5094903;28;20104;-51
2023/03/20 01:09:46;;;;;;;11.93;4.78;;;6.90;99.90;;;;;;5094206;28;20502;-50
2023/03/20 01:12:14;;;;;;;10.52;5.15;;;7.30;99.90;;;;;;5093387;28;20040;-48
2023/03/20 01:14:40;;;;;;;10.77;4.60;;;7.00;99.90;;;;;;5094453;28;20097;-49
2023/03/20 01:17:17;;;;;;;9.40;4.57;;;7.10;99.90;;;;;;5094407;28;20041;-49
2023/03/20 01:19:42;;;;;;;9.77;4.88;;;7.20;99.90;;;;;;5094039;28;20189;-49
2023/03/20 01:22:08;;;;;;;10.52;4.47;;;7.10;99.90;;;;;;5094213;28;20476;-49
2023/03/20 01:24:34;;;;;;;10.68;4.88;;;7.40;99.90;;;;;;5093927;28;20047;-48
2023/03/20 01:27:02;;;;;;;13.60;5.05;;;7.10;99.90;;;;;;5094338;28;20192;-49
2023/03/20 01:29:29;;;;;;;11.88;5.20;;;7.50;99.90;;;;;;5094135;28;20054;-48
2023/03/20 01:31:55;;;;;;;15.05;6.22;;;7.40;99.90;;;;;;5094169;28;20090;-51
2023/03/20 01:34:21;;;;;;;18.80;6.43;;;7.00;99.90;;;;;;5093888;28;20052;-50
2023/03/20 01:36:55;;;;;;;11.95;5.53;;;7.00;99.90;;;;;;5093981;28;20115;-50
2023/03/20 01:39:24;;;;;;;14.95;5.65;;;7.00;99.90;;;;;;5093913;28;20058;-48
2023/03/20 01:41:51;;;;;;;13.60;5.43;;;7.10;99.90;;;;;;5093757;28;20546;-49
2023/03/20 01:44:21;;;;;;;10.50;5.25;;;7.00;99.90;;;;;;5093682;28;20040;-49
2023/03/20 01:46:48;;;;;;;19.42;5.85;;;7.30;99.90;;;;;;5093731;28;20093;-49
2023/03/20 01:49:20;;;;;;;13.10;5.75;;;7.10;99.90;;;;;;5093374;28;20107;-48
2023/03/20 01:51:50;;;;;;;17.65;5.97;;;7.30;99.90;;;;;;5093568;28;20047;-50
2023/03/20 01:54:23;;;;;;;11.82;6.20;;;7.30;99.90;;;;;;5093545;28;20047;-51
2023/03/20 01:57:12;;;;;;;16.70;6.22;;;7.20;99.90;;;;;;5093729;28;20418;-47
2023/03/20 01:59:44;;;;;;;16.27;5.63;;;7.40;99.90;;;;;;5092127;28;20052;-47
2023/03/20 02:02:15;;;;;;;15.77;6.15;;;7.20;99.90;;;;;;5093619;28;20365;-52
2023/03/20 02:04:44;;;;;;;11.85;5.82;;;7.40;99.90;;;;;;5093389;28;20075;-48
2023/03/20 02:07:15;;;;;;;13.90;6.40;;;7.30;99.90;;;;;;5093348;28;20082;-51
2023/03/20 02:09:41;;;;;;;20.00;8.60;;;7.00;99.90;;;;;;5093285;28;20383;-48
2023/03/20 02:12:07;;;;;;;13.38;6.65;;;7.50;99.90;;;;;;5093287;28;20122;-49
2023/03/20 02:14:34;;;;;;;14.98;6.95;;;7.40;99.90;;;;;;5091817;28;20048;-51
2023/03/20 02:17:03;;;;;;;13.27;6.53;;;7.30;99.90;;;;;;5093477;28;20039;-52
2023/03/20 02:19:52;;;;;;;13.90;7.35;;;7.10;99.90;;;;;;5092958;28;20096;-49
2023/03/20 02:22:39;;;;;;;14.80;6.47;;;7.10;99.90;;;;;;5091831;28;20104;-52
2023/03/20 02:25:24;;;;;;;16.20;7.00;;;7.60;99.90;;;;;;5092763;28;20138;-51
2023/03/20 02:28:28;;;;;;;15.20;6.60;;;7.40;99.90;;;;;;5093032;28;20036;-50
2023/03/20 02:31:16;;;;;;;14.38;6.85;;;7.60;99.90;;;;;;5092898;28;20036;-52
2023/03/20 02:33:49;;;;;;;15.68;7.05;;;7.30;99.90;;;;;;5085343;28;20071;-50
2023/03/20 02:36:35;;;;;;;16.02;7.15;;;7.00;99.90;;;;;;5092839;28;20047;-50
2023/03/20 02:39:26;;;;;;;20.42;7.78;;;7.60;99.90;;;;;;5091581;28;20087;-49
2023/03/20 02:42:21;;;;;;;19.60;7.20;;;7.40;99.90;;;;;;5091459;28;20396;-49
2023/03/20 02:44:55;;;;;;;18.13;7.18;;;7.00;99.90;;;;;;5072666;28;20458;-52
2023/03/20 02:47:45;;;;;;;18.13;7.90;;;7.10;99.90;;;;;;5092518;28;20396;-53
2023/03/20 02:50:26;;;;;;;22.17;7.72;;;7.20;99.90;;;;;;5092418;28;20052;-49
2023/03/20 02:53:08;;;;;;;13.13;7.40;;;7.10;99.90;;;;;;5072433;28;20055;-49
2023/03/20 02:55:45;;;;;;;19.27;6.85;;;7.70;99.90;;;;;;5072005;28;20481;-50
2023/03/20 02:58:50;;;;;;;17.50;6.70;;;7.10;99.90;;;;;;5072089;28;20044;-48
2023/03/20 03:01:19;;;;;;;16.75;6.75;;;7.20;99.90;;;;;;5029690;28;20041;-49
2023/03/20 03:03:55;;;;;;;18.80;6.70;;;7.10;99.90;;;;;;5064163;28;20052;-50
2023/03/20 03:06:33;;;;;;;18.67;7.97;;;7.20;99.90;;;;;;5071955;28;20087;-48
2023/03/20 03:09:37;;;;;;;21.95;6.75;;;7.40;99.90;;;;;;5072105;28;20048;-48
2023/03/20 03:12:13;;;;;;;21.15;7.50;;;7.10;99.90;;;;;;5029304;28;20041;-49
2023/03/20 03:14:49;;;;;;;17.38;7.15;;;7.10;99.90;;;;;;5066865;28;20056;-50
2023/03/20 03:17:18;;;;;;;17.33;7.50;;;7.60;99.90;;;;;;5071762;28;20048;-47
2023/03/20 03:19:48;;;;;;;20.20;7.43;;;7.20;99.90;;;;;;5070776;28;20060;-48
2023/03/20 03:22:18;;;;;;;15.82;6.90;;;7.10;99.90;;;;;;5071752;28;20515;-52
2023/03/20 03:24:49;;;;;;;16.30;7.07;;;7.20;99.90;;;;;;5071801;28;20523;-48
2023/03/20 03:27:35;;;;;;;19.58;7.00;;;7.50;99.90;;;;;;5071630;28;20447;-49
2023/03/20 03:30:10;;;;;;;19.35;7.53;;;7.70;99.90;;;;;;5071994;28;20378;-51
2023/03/20 03:32:48;;;;;;;15.40;6.80;;;7.60;99.90;;;;;;5070465;28;20072;-49
2023/03/20 03:35:18;;;;;;;16.33;7.47;;;7.10;99.90;;;;;;5071766;28;20049;-49
2023/03/20 03:38:00;;;;;;;16.70;7.22;;;7.20;99.90;;;;;;5071750;28;20059;-50
2023/03/20 03:40:45;;;;;;;18.23;7.82;;;7.70;99.90;;;;;;5071591;28;20499;-53
2023/03/20 03:43:25;;;;;;;17.80;7.50;;;7.70;99.90;;;;;;5071712;28;20438;-51
2023/03/20 03:46:00;;;;;;;20.58;8.82;;;7.50;99.90;;;;;;5071754;28;20043;-52
2023/03/20 03:48:31;;;;;;;18.17;7.55;;;7.10;99.90;;;;;;5072793;28;20082;-51
2023/03/20 03:51:03;;;;;;;15.95;8.40;;;7.70;99.90;;;;;;5091814;28;20072;-50
2023/03/20 03:53:39;;;;;;;18.58;8.35;;;7.80;99.90;;;;;;5090399;28;20127;-49
2023/03/20 03:56:09;;;;;;;19.63;8.95;;;7.40;99.90;;;;;;5091716;28;20125;-49
2023/03/20 03:58:55;;;;;;;19.08;7.60;;;7.10;99.90;;;;;;5091684;28;20028;-51
2023/03/20 04:01:23;;;;;;;20.55;8.55;;;7.30;99.90;;;;;;5090400;28;20047;-52
2023/03/20 04:03:52;;;;;;;17.67;7.70;;;7.20;99.90;;;;;;5091817;28;20040;-49
2023/03/20 04:06:19;;;;;;;15.80;7.47;;;7.20;99.90;;;;;;5091420;28;20044;-49
2023/03/20 04:08:45;;;;;;;19.48;8.23;;;7.20;99.90;;;;;;5091734;28;20040;-49
2023/03/20 04:11:27;;;;;;;14.18;7.68;;;7.30;99.90;;;;;;5091625;28;20481;-50
2023/03/20 04:13:54;;;;;;;20.42;8.23;;;7.20;99.90;;;;;;5090358;28;20511;-52
2023/03/20 04:16:22;;;;;;;16.40;7.63;;;7.40;99.90;;;;;;5091624;28;20059;-50
2023/03/20 04:18:49;;;;;;;15.02;7.22;;;7.20;99.90;;;;;;5090232;28;20528;-49
2023/03/20 04:21:15;;;;;;;16.50;7.30;;;7.70;99.90;;;;;;5091805;28;20064;-49
2023/03/20 04:23:41;;;;;;;16.63;7.53;;;7.50;99.90;;;;;;5094924;28;20476;-48
2023/03/20 04:26:07;;;;;;;18.38;7.20;;;7.70;99.90;;;;;;5094170;28;20473;-49
2023/03/20 04:28:33;;;;;;;17.33;7.53;;;7.40;99.90;;;;;;5095106;28;20468;-49
2023/03/20 04:31:01;;;;;;;16.73;7.72;;;7.20;99.90;;;;;;5095616;28;20040;-49
2023/03/20 04:33:27;;;;;;;16.60;7.88;;;7.70;99.90;;;;;;5095211;28;20039;-49
2023/03/20 04:35:53;;;;;;;17.80;7.30;;;7.40;99.90;;;;;;5095251;28;20110;-49
2023/03/20 04:38:20;;;;;;;14.82;7.53;;;7.30;99.90;;;;;;5094706;28;20044;-49
2023/03/20 04:40:46;;;;;;;16.60;7.65;;;7.70;99.90;;;;;;5093776;28;20044;-48
2023/03/20 04:43:13;;;;;;;18.27;8.07;;;7.60;99.90;;;;;;5094792;28;20036;-49
2023/03/20 04:45:39;;;;;;;16.10;7.68;;;7.60;99.90;;;;;;5094944;28;20044;-48
2023/03/20 04:48:05;;;;;;;16.55;9.32;;;7.50;99.90;;;;;;5094849;28;20523;-49
2023/03/20 04:50:31;;;;;;;18.13;8.50;;;7.60;99.90;;;;;;5094932;28;20043;-49
2023/03/20 04:52:57;;;;;;;20.90;9.27;;;7.20;99.90;;;;;;5093251;28;20040;-49
2023/03/20 04:55:23;;;;;;;16.42;8.07;;;7.40;99.90;;;;;;5094759;28;20123;-49
2023/03/20 04:57:49;;;;;;;20.52;8.88;;;7.20;99.90;;;;;;5093396;28;20055;-49
2023/03/20 05:00:15;;;;;;;16.08;8.93;;;7.60;99.90;;;;;;5092969;28;20561;-49
2023/03/20 05:02:43;;;;;;;16.90;8.77;;;7.50;99.90;;;;;;5094460;28;20403;-49
2023/03/20 05:05:09;;;;;;;17.58;9.20;;;7.40;99.90;;;;;;5093987;28;20042;-53
2023/03/20 05:07:35;;;;;;;19.55;8.65;;;7.40;99.90;;;;;;5094378;28;20040;-51
2023/03/20 05:10:02;;;;;;;19.15;9.68;;;7.50;99.90;;;;;;5094300;28;20032;-49
2023/03/20 05:12:28;;;;;;;21.38;9.90;;;7.60;99.90;;;;;;5094236;28;20036;-52
2023/03/20 05:14:53;;;;;;;21.58;9.80;;;7.30;99.90;;;;;;5094492;28;20047;-50
2023/03/20 05:17:23;;;;;;;19.33;9.00;;;7.60;99.90;;;;;;5093237;28;20437;-49
2023/03/20 05:19:49;;;;;;;20.65;9.43;;;7.30;99.90;;;;;;5093830;28;20117;-49
2023/03/20 05:22:15;;;;;;;22.45;10.38;;;7.30;99.90;;;;;;5094162;28;20048;-49
2023/03/20 05:24:41;;;;;;;22.65;9.68;;;7.60;99.90;;;;;;5094030;28;20052;-49
2023/03/20 05:27:07;;;;;;;21.88;9.52;;;7.60;99.90;;;;;;5094249;28;20041;-50
2023/03/20 05:29:32;;;;;;;17.90;8.65;;;7.60;99.90;;;;;;5093927;28;20044;-52
2023/03/20 05:31:58;;;;;;;21.40;9.80;;;7.30;99.90;;;;;;5094063;28;20059;-50
2023/03/20 05:34:24;;;;;;;18.10;10.38;;;7.40;99.90;;;;;;5092854;28;20040;-51
2023/03/20 05:36:50;;;;;;;25.85;10.48;;;7.60;99.90;;;;;;5092694;28;20048;-49
2023/03/20 05:39:16;;;;;;;19.92;9.88;;;7.60;99.90;;;;;;5092721;28;20044;-51
2023/03/20 05:41:42;;;;;;;20.30;9.85;;;7.60;99.90;;;;;;5093869;28;20407;-50
2023/03/20 05:44:07;;;;;;;19.35;10.52;;;7.30;99.90;;;;;;5093672;28;20172;-51
2023/03/20 05:46:33;;;;;;;19.15;9.93;;;7.60;99.90;;;;;;5093725;28;20043;-49
2023/03/20 05:48:59;;;;;;;21.13;10.18;;;7.60;99.90;;;;;;5093474;28;20028;-48
2023/03/20 05:51:26;;;;;;;21.73;10.48;;;7.40;99.90;;;;;;5092599;28;20052;-50
2023/03/20 05:53:52;;;;;;;22.13;10.60;;;7.40;99.90;;;;;;5093707;28;20048;-51
2023/03/20 05:56:17;;;;;;;22.27;9.82;;;7.70;99.90;;;;;;5093506;28;20047;-50
2023/03/20 05:58:43;;;;;;;24.00;9.77;;;7.60;99.90;;;;;;5093568;28;20109;-49
2023/03/20 06:01:09;;;;;;;23.15;10.57;;;7.20;99.90;;;;;;5093587;28;20476;-49
2023/03/20 06:03:35;;;;;;;18.20;10.35;;;7.60;99.90;;;;;;5091978;28;20500;-50
2023/03/20 06:06:02;;;;;;;22.42;10.23;;;7.50;99.90;;;;;;5093624;28;20044;-49
2023/03/20 06:08:29;;;;;;;21.85;11.05;;;7.20;99.90;;;;;;5093428;28;20075;-49
2023/03/20 06:10:55;;;;;;;20.88;10.07;;;7.30;99.90;;;;;;5091494;28;20043;-51
2023/03/20 06:13:21;;;;;;;19.60;9.10;;;7.20;99.90;;;;;;5091906;28;20047;-52
2023/03/20 06:15:46;;;;;;;20.65;10.10;;;7.70;99.90;;;;;;5080373;28;20081;-51
2023/03/20 06:18:12;;;;;;;19.23;10.05;;;7.50;99.90;;;;;;5081998;28;20036;-51
2023/03/20 06:20:38;;;;;;;19.02;9.52;;;7.20;99.90;;;;;;5070554;28;20057;-52
2023/03/20 06:23:04;;;;;;;18.83;9.55;;;7.40;99.90;;;;;;5071045;28;20048;-50
2023/03/20 06:25:29;;;;;;;19.77;9.10;;;7.30;99.90;;;;;;5071307;28;20439;-48
2023/03/20 06:27:56;;;;;;;19.55;9.45;;;7.50;99.90;;;;;;5071321;28;20047;-49
2023/03/20 06:30:22;;;;;;;20.05;10.23;;;7.30;99.90;;;;;;5077717;28;20078;-48
2023/03/20 06:32:47;;;;;;;19.63;9.15;;;7.70;99.90;;;;;;5091067;28;20076;-49
2023/03/20 06:35:13;;;;;;;23.48;9.65;;;7.30;99.90;;;;;;5076520;28;20048;-54
2023/03/20 06:37:39;;;;;;;18.88;9.00;;;7.70;99.90;;;;;;5091424;28;20044;-52
2023/03/20 06:40:06;;;;;;;17.50;9.73;;;7.70;99.90;;;;;;5091016;28;20046;-52
2023/03/20 06:42:32;;;;;;;18.50;9.18;;;7.60;99.90;;;;;;5091166;28;20071;-49
2023/03/20 06:44:58;;;;;;;22.73;9.88;;;7.30;99.90;;;;;;5087772;28;20452;-49
2023/03/20 06:47:23;;;;;;;21.25;9.90;;;7.50;99.90;;;;;;5069402;28;20040;-48
2023/03/20 06:49:49;;;;;;;19.70;10.45;;;7.60;99.90;;;;;;5083211;28;20040;-49
2023/03/20 06:52:16;;;;;;;18.52;9.38;;;7.60;99.90;;;;;;5090900;28;20093;-49
2023/03/20 06:54:42;;;;;;;19.50;9.45;;;7.50;99.90;;;;;;5090887;28;20557;-50
2023/03/20 06:57:08;;;;;;;19.67;9.52;;;7.80;99.90;;;;;;5091052;28;20079;-48
2023/03/20 06:59:35;;;;;;;20.02;10.15;;;7.50;99.90;;;;;;5090834;28;20067;-48
2023/03/20 07:02:01;;;;;;;20.45;10.05;;;7.50;99.90;;;;;;5084316;28;20040;-48
2023/03/20 07:04:26;;;;;;;19.45;9.88;;;7.50;99.90;;;;;;5070621;28;20037;-48
2023/03/20 07:06:52;;;;;;;21.80;10.38;;;7.60;99.90;;;;;;5070780;28;20115;-51
2023/03/20 07:09:18;;;;;;;20.05;9.63;;;7.80;99.90;;;;;;5070802;28;20036;-48
2023/03/20 07:11:44;;;;;;;23.05;10.13;;;7.60;99.90;;;;;;5069339;28;20513;-48
2023/03/20 07:14:10;;;;;;;22.02;10.77;;;7.80;99.90;;;;;;5070253;28;20087;-50
2023/03/20 07:16:36;;;;;;;21.63;9.60;;;7.70;99.90;;;;;;5070322;28;20076;-52
2023/03/20 07:19:02;;;;;;;22.35;9.90;;;8.10;99.90;;;;;;5070307;28;20040;-49
2023/03/20 07:21:29;;;;;;;19.88;9.77;;;8.10;99.90;;;;;;5078733;28;20534;-49
2023/03/20 07:23:54;;;;;;;16.48;10.43;;;8.10;99.90;;;;;;5087057;28;20032;-50
2023/03/20 07:26:20;;;;;;;21.65;10.40;;;8.10;99.90;;;;;;5090060;28;20121;-51
2023/03/20 07:28:46;;;;;;;21.33;9.95;;;7.90;99.90;;;;;;5090414;28;20031;-50
2023/03/20 07:31:23;;;;;;;20.10;10.13;;;8.00;99.90;;;;;;5090289;28;20123;-50
2023/03/20 07:33:48;;;;;;;21.90;10.25;;;8.10;99.90;;;;;;5090518;28;20048;-49
2023/03/20 07:36:14;;;;;;;21.60;10.75;;;8.00;99.90;;;;;;5090539;28;20396;-50
2023/03/20 07:38:40;;;;;;;19.65;10.25;;;8.30;99.90;;;;;;5090422;28;20040;-48
2023/03/20 07:41:06;;;;;;;24.10;10.38;;;8.10;99.90;;;;;;5090315;28;20024;-48
2023/03/20 07:43:32;;;;;;;19.98;9.80;;;8.40;99.90;;;;;;5090254;28;20040;-49
2023/03/20 07:46:01;;;;;;;18.02;10.02;;;8.40;99.90;;;;;;5090413;28;20044;-49
2023/03/20 07:48:27;;;;;;;22.00;10.80;;;8.20;99.90;;;;;;5089158;28;20044;-48
2023/03/20 07:50:53;;;;;;;20.20;10.38;;;8.20;99.90;;;;;;5089844;28;20074;-49
2023/03/20 07:53:18;;;;;;;21.05;9.85;;;8.20;99.90;;;;;;5090400;28;20028;-49
2023/03/20 07:55:44;;;;;;;19.98;10.93;;;8.40;99.90;;;;;;5089966;28;20492;-58
2023/03/20 07:58:10;;;;;;;20.77;11.18;;;8.20;99.90;;;;;;5093757;28;20396;-58
2023/03/20 08:00:36;;;;;;;20.70;10.65;;;8.30;99.90;;;;;;5093763;28;20485;-60
2023/03/20 08:03:02;;;;;;;20.42;10.27;;;8.50;99.90;;;;;;5080519;28;20048;-60
2023/03/20 08:05:28;;;;;;;25.25;11.95;;;8.60;99.90;;;;;;5022838;28;20534;-58
2023/03/20 08:07:54;;;;;;;24.65;11.25;;;8.40;99.90;;;;;;5072756;28;20083;-58
2023/03/20 08:10:20;;;;;;;22.67;11.10;;;8.50;99.90;;;;;;5078647;28;20132;-58
2023/03/20 08:12:46;;;;;;;18.40;10.43;;;8.40;99.90;;;;;;5083959;28;20043;-58
2023/03/20 08:15:12;;;;;;;22.40;11.48;;;8.60;99.90;;;;;;5082766;28;20040;-59
2023/03/20 08:17:42;;;;;;;20.42;11.43;;;8.20;99.90;;;;;;5083081;28;20305;-59
2023/03/20 08:20:09;;;;;;;25.90;12.35;;;8.40;99.90;;;;;;5081842;28;20400;-60
2023/03/20 08:22:35;;;;;;;25.67;12.32;;;8.40;99.90;;;;;;5073629;28;20040;-58
2023/03/20 08:25:00;;;;;;;24.83;11.88;;;8.40;99.90;;;;;;5073060;28;20064;-60
2023/03/20 08:27:26;;;;;;;21.50;10.73;;;8.30;99.90;;;;;;5074280;28;20068;-59
2023/03/20 08:29:52;;;;;;;22.42;11.93;;;8.30;99.90;;;;;;5082747;28;20048;-59
2023/03/20 08:32:17;;;;;;;29.58;12.10;;;8.30;99.90;;;;;;5080422;28;20112;-58
2023/03/20 08:34:43;;;;;;;23.90;11.98;;;8.30;99.90;;;;;;5091780;28;20075;-59
2023/03/20 08:37:11;;;;;;;22.45;12.23;;;8.40;99.90;;;;;;5092772;28;20047;-59
2023/03/20 08:39:38;;;;;;;21.25;11.35;;;8.40;99.90;;;;;;5093157;28;20043;-59
2023/03/20 08:42:04;;;;;;;22.98;10.85;;;8.50;99.90;;;;;;5092794;28;20044;-59
2023/03/20 08:44:30;;;;;;;24.20;11.57;;;8.60;99.90;;;;;;5093287;28;20509;-59
2023/03/20 08:46:56;;;;;;;20.33;11.00;;;8.80;99.90;;;;;;5092935;28;20123;-59
2023/03/20 08:49:22;;;;;;;24.95;12.02;;;8.80;99.90;;;;;;5092695;28;20126;-58
2023/03/20 08:51:47;;;;;;;21.52;10.80;;;8.70;99.90;;;;;;5093287;28;20488;-59
2023/03/20 08:54:15;;;;;;;21.05;12.05;;;8.70;99.90;;;;;;5092962;28;20048;-59
2023/03/20 08:56:41;;;;;;;21.75;12.10;;;8.80;99.90;;;;;;5092635;28;20082;-58
2023/03/20 08:59:06;;;;;;;22.63;11.88;;;8.80;99.90;;;;;;5092663;28;20036;-58
2023/03/20 09:01:32;;;;;;;20.55;11.43;;;9.00;99.90;;;;;;5092044;28;20093;-59
2023/03/20 09:03:58;;;;;;;21.75;10.75;;;8.90;99.90;;;;;;5092406;28;20047;-59
2023/03/20 09:06:23;;;;;;;24.15;10.82;;;9.10;99.90;;;;;;5091273;28;20078;-60
2023/03/20 09:08:49;;;;;;;20.75;10.70;;;8.90;99.90;;;;;;5091421;28;20468;-58
2023/03/20 09:11:15;;;;;;;22.30;11.35;;;9.00;99.90;;;;;;5085121;28;20580;-58
2023/03/20 09:13:40;;;;;;;22.02;11.77;;;9.20;99.90;;;;;;5072631;28;20041;-58
2023/03/20 09:16:07;;;;;;;18.55;10.48;;;9.40;99.90;;;;;;5081052;28;20068;-59
2023/03/20 09:18:32;;;;;;;20.60;10.40;;;9.40;99.90;;;;;;5081366;28;20036;-58
2023/03/20 09:20:58;;;;;;;20.38;11.77;;;9.40;99.90;;;;;;5081509;28;20051;-58
2023/03/20 09:23:24;;;;;;;22.23;10.45;;;9.50;99.90;;;;;;5081244;28;20041;-58
2023/03/20 09:25:49;;;;;;;19.77;9.90;;;9.50;99.90;;;;;;5082773;28;20404;-58
2023/03/20 09:28:15;;;;;;;17.73;9.93;;;9.40;99.90;;;;;;5083045;28;20506;-59
2023/03/20 09:30:42;;;;;;;20.55;10.55;;;9.60;99.90;;;;;;5082637;28;20408;-61
2023/03/20 09:33:08;;;;;;;19.42;10.27;;;9.60;99.90;;;;;;5081130;28;20040;-61
2023/03/20 09:35:34;;;;;;;19.90;9.32;;;9.70;99.90;;;;;;5091999;28;20377;-58
2023/03/20 09:37:59;;;;;;;20.73;9.10;;;9.80;99.90;;;;;;5083179;28;20506;-58
2023/03/20 09:40:29;;;;;;;17.23;9.73;;;10.00;99.90;;;;;;5090735;28;20047;-59
2023/03/20 09:43:00;;;;;;;16.67;9.05;;;9.80;99.90;;;;;;5092381;28;20032;-62
2023/03/20 09:45:42;;;;;;;18.83;9.60;;;10.00;99.90;;;;;;5082974;28;20508;-60
2023/03/20 09:48:37;;;;;;;21.67;9.43;;;9.80;99.90;;;;;;5072062;28;20153;-60
2023/03/20 09:51:24;;;;;;;21.45;10.00;;;9.80;99.90;;;;;;5091689;28;20035;-60
2023/03/20 09:54:05;;;;;;;19.65;9.73;;;9.80;99.90;;;;;;5092236;28;20047;-60
2023/03/20 09:56:32;;;;;;;19.92;9.50;;;10.10;99.90;;;;;;5092127;28;20119;-60
2023/03/20 09:59:01;;;;;;;15.63;9.30;;;9.90;99.90;;;;;;5087982;28;20040;-62
2023/03/20 10:01:56;;;;;;;15.13;8.57;;;10.10;99.90;;;;;;5092032;28;20381;-61
2023/03/20 10:04:27;;;;;;;21.10;9.15;;;10.10;99.90;;;;;;5074994;28;20180;-61
2023/03/20 10:06:54;;;;;;;19.42;9.48;;;9.90;99.90;;;;;;5091438;28;20510;-61
2023/03/20 10:09:25;;;;;;;20.27;9.27;;;10.20;99.90;;;;;;5091774;28;20044;-60
2023/03/20 10:12:12;;;;;;;21.30;9.90;;;10.00;99.90;;;;;;5091007;28;20056;-61
2023/03/20 10:14:51;;;;;;;19.13;9.57;;;10.10;99.90;;;;;;5091522;28;20122;-60
2023/03/20 10:17:35;;;;;;;15.85;8.15;;;9.80;99.90;;;;;;5089442;28;20055;-60
2023/03/20 10:20:16;;;;;;;18.55;7.97;;;10.00;99.90;;;;;;5089352;28;20048;-60
2023/03/20 10:22:47;;;;;;;17.17;8.82;;;10.00;99.90;;;;;;5089539;28;20047;-61
2023/03/20 10:25:36;;;;;;;17.52;9.00;;;9.90;99.90;;;;;;5090319;28;20036;-60
2023/03/20 10:28:28;;;;;;;19.35;10.88;;;9.90;99.90;;;;;;5090823;28;20040;-61
2023/03/20 10:31:38;;;;;;;22.02;10.15;;;9.80;99.90;;;;;;5091835;28;20093;-61
2023/03/20 10:34:22;;;;;;;20.63;10.10;;;9.90;99.90;;;;;;5072189;28;20048;-61
2023/03/20 10:37:22;;;;;;;18.05;11.18;;;10.00;99.90;;;;;;5092031;28;20377;-61
2023/03/20 10:39:56;;;;;;;20.20;10.75;;;10.00;99.90;;;;;;5092396;28;20073;-61
2023/03/20 10:42:29;;;;;;;19.30;10.90;;;10.10;99.90;;;;;;5091478;28;20039;-60
2023/03/20 10:45:05;;;;;;;16.40;10.07;;;10.00;99.90;;;;;;5092028;28;20123;-60
2023/03/20 10:47:37;;;;;;;19.90;10.07;;;10.00;99.90;;;;;;5092469;28;20085;-61
2023/03/20 10:50:18;;;;;;;17.45;10.50;;;10.10;99.90;;;;;;5092564;28;20103;-60
2023/03/20 10:52:47;;;;;;;20.52;11.15;;;10.00;99.90;;;;;;5072366;28;20366;-61
2023/03/20 10:55:20;;;;;;;16.55;10.57;;;10.10;99.90;;;;;;5072014;28;20037;-60
2023/03/20 10:57:53;;;;;;;23.25;11.60;;;10.10;99.90;;;;;;5071915;28;20052;-61
2023/03/20 11:00:25;;;;;;;22.45;11.27;;;9.80;99.90;;;;;;5072025;28;20083;-62
2023/03/20 11:02:51;;;;;;;18.30;12.05;;;10.00;99.90;;;;;;5070807;28;20437;-61
2023/03/20 11:05:29;;;;;;;20.63;12.65;;;9.80;99.90;;;;;;5072211;28;20124;-61
2023/03/20 11:08:11;;;;;;;22.83;11.98;;;9.60;99.90;;;;;;5072045;28;20044;-60
2023/03/20 11:10:40;;;;;;;33.63;12.70;;;9.70;99.90;;;;;;5077958;28;20103;-60
2023/03/20 11:13:18;;;;;;;20.58;12.38;;;9.90;99.90;;;;;;5082544;28;20047;-61
2023/03/20 11:15:44;;;;;;;22.17;12.18;;;9.80;99.90;;;;;;5079849;28;20044;-60
2023/03/20 11:18:12;;;;;;;22.27;11.57;;;9.80;99.90;;;;;;5085876;28;20036;-61
2023/03/20 11:20:56;;;;;;;21.25;11.07;;;9.90;99.90;;;;;;5080107;28;20119;-60
2023/03/20 11:23:30;;;;;;;21.42;10.70;;;9.70;99.90;;;;;;5070493;28;20083;-60
2023/03/20 11:25:57;;;;;;;18.95;10.07;;;9.90;99.90;;;;;;5070551;28;20116;-60
2023/03/20 11:28:34;;;;;;;17.40;10.40;;;10.00;99.90;;;;;;5071688;28;20044;-60
2023/03/20 11:31:19;;;;;;;18.30;10.60;;;9.70;99.90;;;;;;5075517;28;20044;-61
2023/03/20 11:34:03;;;;;;;21.40;10.25;;;9.80;99.90;;;;;;5091853;28;20075;-61
2023/03/20 11:36:31;;;;;;;18.25;9.95;;;9.70;99.90;;;;;;5091897;28;20043;-61
2023/03/20 11:39:12;;;;;;;19.40;9.85;;;9.80;99.90;;;;;;5091752;28;20141;-61
2023/03/20 11:41:44;;;;;;;19.92;10.50;;;9.80;99.90;;;;;;5091900;28;20046;-57
2023/03/20 11:44:27;;;;;;;20.35;10.88;;;9.70;99.90;;;;;;5090878;28;20451;-60
2023/03/20 11:47:17;;;;;;;15.60;8.90;;;9.70;99.90;;;;;;5091756;28;20051;-60
2023/03/20 11:49:51;;;;;;;17.77;9.48;;;9.50;99.90;;;;;;5091669;28;20072;-60
2023/03/20 11:52:23;;;;;;;15.70;8.40;;;9.60;99.90;;;;;;5090605;28;20176;-60
2023/03/20 11:54:55;;;;;;;16.38;7.60;;;9.30;99.90;;;;;;5091595;28;20503;-61
2023/03/20 11:57:29;;;;;;;14.27;6.78;;;9.40;99.90;;;;;;5090569;28;20047;-60
2023/03/20 11:59:55;;;;;;;14.45;6.22;;;9.40;99.90;;;;;;5092128;28;20396;-61
2023/03/20 12:02:24;;;;;;;11.00;5.18;;;9.50;99.90;;;;;;5091410;28;20459;-60
2023/03/20 12:04:49;;;;;;;9.90;4.32;;;9.20;99.90;;;;;;5091613;28;20127;-60
2023/03/20 12:07:26;;;;;;;13.73;4.85;;;9.50;99.90;;;;;;5091712;28;20504;-61
2023/03/20 12:10:12;;;;;;;12.07;5.45;;;9.30;99.90;;;;;;5086332;28;20051;-59
2023/03/20 12:12:40;;;;;;;10.10;4.22;;;9.30;99.90;;;;;;5070471;28;20153;-60
2023/03/20 12:15:18;;;;;;;13.00;5.00;;;9.10;99.90;;;;;;5080478;28;20102;-60
2023/03/20 12:17:59;;;;;;;11.73;4.80;;;9.20;99.90;;;;;;5080919;28;20032;-60
2023/03/20 12:20:38;;;;;;;12.23;4.90;;;9.10;99.90;;;;;;5080667;28;20056;-60
2023/03/20 12:23:27;;;;;;;11.13;4.50;;;9.40;99.90;;;;;;5080833;28;20044;-60
2023/03/20 12:26:06;;;;;;;13.23;5.28;;;9.20;99.90;;;;;;5084161;28;20132;-60
2023/03/20 12:28:40;;;;;;;16.95;6.10;;;9.10;99.90;;;;;;5091348;28;20426;-60
2023/03/20 12:31:28;;;;;;;12.63;5.93;;;9.20;99.90;;;;;;5091296;28;20036;-60
2023/03/20 12:33:58;;;;;;;15.65;6.88;;;9.20;99.90;;;;;;5091614;28;20040;-60
2023/03/20 12:36:40;;;;;;;13.48;7.53;;;9.10;99.90;;;;;;5091162;28;20040;-61
2023/03/20 12:39:23;;;;;;;15.60;7.72;;;9.00;99.90;;;;;;5091255;28;20115;-60
2023/03/20 12:42:17;;;;;;;13.70;8.18;;;9.00;99.90;;;;;;5091585;28;20040;-61
2023/03/20 12:45:10;;;;;;;16.73;8.48;;;9.20;99.90;;;;;;5094848;28;20093;-60
2023/03/20 12:48:00;;;;;;;15.57;9.15;;;8.80;99.90;;;;;;5093551;28;20047;-60
2023/03/20 12:50:39;;;;;;;15.77;9.07;;;9.30;99.90;;;;;;5093149;28;20092;-60
2023/03/20 12:53:33;;;;;;;16.25;9.30;;;8.90;99.90;;;;;;5094442;28;20035;-60
2023/03/20 12:56:26;;;;;;;15.90;9.27;;;9.20;99.90;;;;;;5094236;28;20046;-60
2023/03/20 12:59:28;;;;;;;16.10;9.32;;;9.20;99.90;;;;;;5093769;28;20044;-60
2023/03/20 13:02:32;;;;;;;16.13;9.27;;;9.10;99.90;;;;;;5040287;28;20483;-60
2023/03/20 13:05:19;;;;;;;13.05;8.82;;;8.60;99.90;;;;;;5094547;28;20044;-60
2023/03/20 13:08:24;;;;;;;18.20;9.27;;;8.70;99.90;;;;;;5094715;28;20043;-60